Time;durP1;ratioP1;P1;durP2;ratioP2;P2;SDS_P1;SDS_P2;PMS_P1;PMS_P2;Temp;Humidity;BMP_temperature;BMP_pressure;BME280_temperature;BME280_humidity;BME280_pressure;Samples;Min_cycle;Max_cycle;Signal;HPM_P1;HPM_P2
2023/01/30 00:01:45;;;;;;;22.63;14.87;;;2.20;99.90;;;;;;5076109;28;20211;-65
2023/01/30 00:04:12;;;;;;;23.70;14.57;;;2.20;99.90;;;;;;5077749;28;20179;-65
2023/01/30 00:06:41;;;;;;;23.07;15.10;;;2.20;99.90;;;;;;5079478;28;20839;-65
2023/01/30 00:09:07;;;;;;;23.93;16.33;;;2.20;99.90;;;;;;5062561;28;21079;-65
2023/01/30 00:11:32;;;;;;;24.03;15.53;;;2.20;99.90;;;;;;5076779;28;20902;-65
2023/01/30 00:13:59;;;;;;;23.90;15.57;;;2.10;99.90;;;;;;5075833;28;20439;-65
2023/01/30 00:16:25;;;;;;;24.07;16.60;;;2.00;99.90;;;;;;5075757;28;20240;-65
2023/01/30 00:18:51;;;;;;;29.07;16.77;;;2.00;99.90;;;;;;5074813;28;21165;-65
2023/01/30 00:21:16;;;;;;;28.37;17.10;;;2.00;99.90;;;;;;5076212;28;20206;-65
2023/01/30 00:23:43;;;;;;;27.03;17.83;;;1.90;99.90;;;;;;5074641;28;20444;-65
2023/01/30 00:26:08;;;;;;;24.63;15.60;;;2.00;99.90;;;;;;5073128;28;20904;-64
2023/01/30 00:28:35;;;;;;;22.63;14.57;;;2.00;99.90;;;;;;5063197;28;20456;-65
2023/01/30 00:31:00;;;;;;;28.80;16.43;;;2.00;99.90;;;;;;5078383;28;20182;-65
2023/01/30 00:33:27;;;;;;;19.23;14.57;;;1.90;99.90;;;;;;5074030;28;20535;-64
2023/01/30 00:35:54;;;;;;;26.07;15.17;;;1.90;99.90;;;;;;5074843;28;20214;-65
2023/01/30 00:38:20;;;;;;;28.80;13.67;;;1.80;99.90;;;;;;5077617;28;20427;-65
2023/01/30 00:40:46;;;;;;;20.77;13.70;;;1.70;99.90;;;;;;5077994;28;20818;-65
2023/01/30 00:48:43;;;;;;;29.70;15.20;;;1.80;99.90;;;;;;5072269;28;20419;-64
2023/01/30 00:51:09;;;;;;;28.43;15.60;;;1.60;99.90;;;;;;5075662;28;20959;-64
2023/01/30 00:53:34;;;;;;;26.73;15.30;;;1.60;99.90;;;;;;5076269;28;20271;-65
2023/01/30 00:56:00;;;;;;;25.53;15.10;;;1.70;99.90;;;;;;5074886;28;20358;-64
2023/01/30 00:58:25;;;;;;;25.00;15.20;;;1.80;99.90;;;;;;5077013;28;20185;-65
2023/01/30 01:00:51;;;;;;;29.30;16.13;;;1.80;99.90;;;;;;5078244;28;20189;-65
2023/01/30 01:03:18;;;;;;;26.03;15.53;;;1.70;99.90;;;;;;5074165;28;20174;-65
2023/01/30 01:05:44;;;;;;;25.13;15.43;;;1.80;99.90;;;;;;5081546;28;20547;-64
2023/01/30 01:08:10;;;;;;;23.80;15.80;;;1.70;99.90;;;;;;5071365;28;20931;-64
2023/01/30 01:10:36;;;;;;;23.20;13.83;;;1.70;99.90;;;;;;5078744;28;20582;-64
2023/01/30 01:13:02;;;;;;;26.07;15.07;;;1.70;99.90;;;;;;5072964;28;20430;-65
2023/01/30 01:15:28;;;;;;;24.30;14.70;;;1.80;99.90;;;;;;5080131;28;20190;-65
2023/01/30 01:17:54;;;;;;;23.67;15.40;;;1.90;99.90;;;;;;5072543;28;20447;-65
2023/01/30 01:20:20;;;;;;;29.30;16.20;;;1.90;99.90;;;;;;5080065;28;20414;-64
2023/01/30 01:22:50;;;;;;;25.97;16.57;;;1.80;99.90;;;;;;5075074;28;20472;-64
2023/01/30 01:25:18;;;;;;;29.03;17.10;;;1.70;99.90;;;;;;5058312;28;20483;-65
2023/01/30 01:27:44;;;;;;;31.40;15.23;;;1.80;99.90;;;;;;5070407;28;20432;-65
2023/01/30 01:30:10;;;;;;;27.83;14.87;;;1.80;99.90;;;;;;5072142;28;20436;-64
2023/01/30 01:32:35;;;;;;;24.93;13.90;;;1.80;99.90;;;;;;5073146;28;20470;-65
2023/01/30 01:35:01;;;;;;;27.87;15.10;;;1.80;99.90;;;;;;5073246;28;20852;-64
2023/01/30 01:37:27;;;;;;;24.40;14.97;;;1.70;99.90;;;;;;5074577;28;20699;-65
2023/01/30 01:42:38;;;;;;;25.20;15.00;;;1.70;99.90;;;;;;5075969;28;20258;-64
2023/01/30 01:45:16;;;;;;;25.93;16.60;;;1.60;99.90;;;;;;5059839;28;20945;-64
2023/01/30 01:47:50;;;;;;;24.90;15.57;;;1.40;99.90;;;;;;5071403;28;20443;-65
2023/01/30 01:50:23;;;;;;;27.00;15.90;;;1.50;99.90;;;;;;5077259;28;20441;-64
2023/01/30 01:52:51;;;;;;;28.37;15.30;;;1.50;99.90;;;;;;5078160;28;20450;-64
2023/01/30 01:55:19;;;;;;;24.00;13.60;;;1.40;99.90;;;;;;5056883;28;20447;-64
2023/01/30 01:57:51;;;;;;;25.17;15.00;;;1.50;99.90;;;;;;5058895;28;20645;-64
2023/01/30 02:00:19;;;;;;;26.10;15.90;;;1.50;99.90;;;;;;5078591;28;20420;-64
2023/01/30 02:02:58;;;;;;;24.20;16.00;;;1.50;99.90;;;;;;5074191;28;20989;-64
2023/01/30 02:05:28;;;;;;;25.03;15.07;;;1.50;99.90;;;;;;5076094;28;20794;-64
2023/01/30 02:08:15;;;;;;;26.43;14.83;;;1.50;99.90;;;;;;5070653;28;20452;-64
2023/01/30 02:10:53;;;;;;;28.03;15.07;;;1.50;99.90;;;;;;5079477;28;20423;-64
2023/01/30 02:13:19;;;;;;;25.20;14.83;;;1.60;99.90;;;;;;5073389;28;20419;-64
2023/01/30 02:15:45;;;;;;;23.40;15.00;;;1.60;99.90;;;;;;5077946;28;20439;-64
2023/01/30 02:18:12;;;;;;;23.00;13.43;;;1.50;99.90;;;;;;5056262;28;20851;-65
2023/01/30 02:20:54;;;;;;;21.93;12.60;;;1.40;99.90;;;;;;5076240;28;20232;-65
2023/01/30 02:23:48;;;;;;;26.47;14.70;;;1.50;99.90;;;;;;5078677;28;20486;-65
2023/01/30 02:26:52;;;;;;;31.73;14.63;;;1.50;99.90;;;;;;5075415;28;21897;-64
2023/01/30 02:29:26;;;;;;;22.33;13.20;;;1.60;99.90;;;;;;5062720;28;20790;-64
2023/01/30 02:32:11;;;;;;;20.33;13.60;;;1.60;99.90;;;;;;5074599;28;20478;-64
2023/01/30 02:35:02;;;;;;;21.57;14.20;;;1.60;99.90;;;;;;5070184;28;20867;-64
2023/01/30 02:37:42;;;;;;;20.87;12.60;;;1.50;99.90;;;;;;5068835;28;20438;-64
2023/01/30 02:40:24;;;;;;;24.10;13.47;;;1.40;99.90;;;;;;5072561;28;20436;-64
2023/01/30 02:43:16;;;;;;;22.93;13.13;;;1.40;99.90;;;;;;5078727;28;20475;-66
2023/01/30 02:46:01;;;;;;;25.80;14.10;;;1.40;99.90;;;;;;5076375;28;20408;-64
2023/01/30 02:48:34;;;;;;;19.77;12.53;;;1.40;99.90;;;;;;5056222;28;20426;-65
2023/01/30 02:51:12;;;;;;;24.80;15.47;;;1.40;99.90;;;;;;5073077;28;20431;-64
2023/01/30 02:53:38;;;;;;;24.73;14.03;;;1.30;99.90;;;;;;5074084;28;20442;-64
2023/01/30 02:56:04;;;;;;;17.20;11.60;;;1.30;99.90;;;;;;5072869;28;20967;-65
2023/01/30 02:58:41;;;;;;;23.87;13.13;;;1.30;99.90;;;;;;5074021;28;20186;-64
2023/01/30 03:01:31;;;;;;;22.00;13.90;;;1.40;99.90;;;;;;5073776;28;20436;-64
2023/01/30 03:04:17;;;;;;;19.40;12.63;;;1.40;99.90;;;;;;5067998;28;20442;-64
2023/01/30 03:06:55;;;;;;;25.03;13.90;;;1.50;99.90;;;;;;5076204;28;20542;-65
2023/01/30 03:09:48;;;;;;;21.20;12.23;;;1.40;99.90;;;;;;5063261;28;20442;-64
2023/01/30 03:12:40;;;;;;;17.40;12.93;;;1.30;99.90;;;;;;5065514;28;20804;-64
2023/01/30 03:15:13;;;;;;;18.37;11.93;;;1.30;99.90;;;;;;5074470;28;20473;-65
2023/01/30 03:17:44;;;;;;;20.37;12.83;;;1.30;99.90;;;;;;5068700;28;20476;-65
2023/01/30 03:20:10;;;;;;;16.07;10.83;;;1.40;99.90;;;;;;5058482;28;20432;-64
2023/01/30 03:22:36;;;;;;;17.63;11.30;;;1.50;99.90;;;;;;5074683;28;20471;-64
2023/01/30 03:25:01;;;;;;;21.57;13.80;;;1.50;99.90;;;;;;5076220;28;20432;-65
2023/01/30 03:27:27;;;;;;;21.50;14.30;;;1.50;99.90;;;;;;5076346;28;20228;-65
2023/01/30 03:29:53;;;;;;;25.73;14.67;;;1.50;99.90;;;;;;5078568;28;20184;-64
2023/01/30 03:32:18;;;;;;;18.83;12.13;;;1.50;99.90;;;;;;5069308;28;20184;-65
2023/01/30 03:34:44;;;;;;;23.17;13.03;;;1.60;99.90;;;;;;5072956;28;20186;-65
2023/01/30 03:37:09;;;;;;;21.50;15.10;;;1.60;99.90;;;;;;5075213;28;20828;-65
2023/01/30 03:39:35;;;;;;;18.37;12.00;;;1.70;99.90;;;;;;5075439;28;20181;-64
2023/01/30 03:42:01;;;;;;;24.97;14.73;;;1.60;99.90;;;;;;5074780;28;20210;-64
2023/01/30 03:44:27;;;;;;;20.50;13.57;;;1.70;99.90;;;;;;5069587;28;20655;-65
2023/01/30 03:46:52;;;;;;;26.10;15.67;;;1.70;99.90;;;;;;5075127;28;20455;-64
2023/01/30 03:49:19;;;;;;;20.20;13.77;;;1.80;99.90;;;;;;5072816;28;20183;-64
2023/01/30 03:51:45;;;;;;;16.30;12.30;;;1.80;99.90;;;;;;5073386;28;20198;-65
2023/01/30 03:54:10;;;;;;;23.63;13.80;;;1.70;99.90;;;;;;5072303;28;20428;-65
2023/01/30 03:56:36;;;;;;;19.77;12.37;;;1.80;99.90;;;;;;5070186;28;20578;-64
2023/01/30 03:59:01;;;;;;;19.53;12.43;;;1.80;99.90;;;;;;5075205;28;20657;-64
2023/01/30 04:01:27;;;;;;;19.63;12.87;;;1.90;99.90;;;;;;5079799;28;20216;-65
2023/01/30 04:03:52;;;;;;;22.63;13.43;;;2.00;99.90;;;;;;5076844;28;20178;-65
2023/01/30 04:06:18;;;;;;;22.77;12.23;;;2.10;99.90;;;;;;5061165;28;20214;-64
2023/01/30 04:08:43;;;;;;;20.40;12.97;;;2.10;99.90;;;;;;5078796;28;20175;-65
2023/01/30 04:11:09;;;;;;;23.30;12.97;;;2.00;99.90;;;;;;5071470;28;20247;-65
2023/01/30 04:13:34;;;;;;;19.47;11.20;;;2.00;99.90;;;;;;5073720;28;20662;-64
2023/01/30 04:16:23;;;;;;;18.77;11.67;;;2.00;99.90;;;;;;5074142;28;20198;-64
2023/01/30 04:18:49;;;;;;;20.93;11.70;;;2.00;99.90;;;;;;5059371;28;20642;-64
2023/01/30 04:21:14;;;;;;;19.50;12.80;;;2.10;99.90;;;;;;5078319;28;20441;-65
2023/01/30 04:23:41;;;;;;;17.37;10.83;;;2.20;99.90;;;;;;5079845;28;20583;-64
2023/01/30 04:26:07;;;;;;;16.40;11.37;;;2.10;99.90;;;;;;5075231;28;20453;-65
2023/01/30 04:28:33;;;;;;;17.63;12.00;;;2.10;99.90;;;;;;5076342;28;20789;-64
2023/01/30 04:30:59;;;;;;;19.20;10.83;;;2.10;99.90;;;;;;5073310;28;20488;-65
2023/01/30 04:33:26;;;;;;;15.50;9.93;;;2.00;99.90;;;;;;5067958;28;20412;-64
2023/01/30 04:35:58;;;;;;;20.43;13.57;;;2.10;99.90;;;;;;5075079;28;20690;-64
2023/01/30 04:38:25;;;;;;;15.33;10.70;;;2.10;99.90;;;;;;5075356;28;20413;-65
2023/01/30 04:40:53;;;;;;;18.33;10.60;;;2.10;99.90;;;;;;5073000;28;20437;-64
2023/01/30 04:43:20;;;;;;;19.00;12.00;;;2.10;99.90;;;;;;5077024;28;21796;-65
2023/01/30 04:45:47;;;;;;;22.40;12.77;;;2.20;99.90;;;;;;5075956;28;20501;-65
2023/01/30 04:48:12;;;;;;;15.40;9.70;;;2.20;99.90;;;;;;5076220;28;20853;-65
2023/01/30 04:50:40;;;;;;;12.27;9.10;;;2.20;99.90;;;;;;5063724;28;20435;-65
2023/01/30 04:53:05;;;;;;;17.73;11.60;;;2.10;99.90;;;;;;5075831;28;20551;-65
2023/01/30 04:55:31;;;;;;;19.33;10.87;;;2.10;99.90;;;;;;5061516;28;20447;-64
2023/01/30 04:57:57;;;;;;;19.40;12.47;;;2.20;99.90;;;;;;5074787;28;20225;-65
2023/01/30 05:00:22;;;;;;;17.73;10.97;;;2.10;99.90;;;;;;5079188;28;20485;-65
2023/01/30 05:02:48;;;;;;;17.87;11.90;;;2.30;99.90;;;;;;5056556;28;20853;-64
2023/01/30 05:05:13;;;;;;;15.70;9.13;;;2.40;99.90;;;;;;5074150;28;20174;-64
2023/01/30 05:07:39;;;;;;;16.63;9.93;;;2.40;99.90;;;;;;5080186;28;20925;-64
2023/01/30 05:10:05;;;;;;;13.40;8.70;;;2.30;99.90;;;;;;5073047;28;20186;-64
2023/01/30 05:12:31;;;;;;;19.13;10.97;;;2.40;99.90;;;;;;5072170;28;20205;-64
2023/01/30 05:14:56;;;;;;;12.47;8.57;;;2.30;99.90;;;;;;5069433;28;20462;-64
2023/01/30 05:17:22;;;;;;;14.70;9.13;;;2.30;99.90;;;;;;5073164;28;20198;-64
2023/01/30 05:19:47;;;;;;;17.67;10.73;;;2.30;99.90;;;;;;5075774;28;20213;-64
2023/01/30 05:22:13;;;;;;;13.47;8.87;;;2.20;99.90;;;;;;5074709;28;20280;-65
2023/01/30 05:24:39;;;;;;;16.20;10.43;;;2.20;99.90;;;;;;5059090;28;20183;-65
2023/01/30 05:27:04;;;;;;;15.67;10.23;;;2.20;99.90;;;;;;5071055;28;20256;-65
2023/01/30 05:29:30;;;;;;;16.13;9.93;;;2.20;99.90;;;;;;5061155;28;20182;-65
2023/01/30 05:31:55;;;;;;;19.23;11.40;;;2.20;99.90;;;;;;5075130;28;20193;-65
2023/01/30 05:34:21;;;;;;;19.47;10.23;;;2.20;99.90;;;;;;5076881;28;20218;-65
2023/01/30 05:36:47;;;;;;;14.20;9.27;;;2.20;99.90;;;;;;5057527;28;20302;-66
2023/01/30 05:39:13;;;;;;;16.97;9.40;;;2.10;99.90;;;;;;5077215;28;20738;-66
2023/01/30 05:41:38;;;;;;;14.03;8.77;;;2.10;99.90;;;;;;5059730;28;20210;-65
2023/01/30 05:44:04;;;;;;;14.73;9.53;;;2.10;99.90;;;;;;5075743;28;21624;-65
2023/01/30 05:46:30;;;;;;;18.23;10.47;;;2.00;99.90;;;;;;5075336;28;20206;-65
2023/01/30 05:48:55;;;;;;;13.87;7.13;;;2.00;99.90;;;;;;5073806;28;20433;-64
2023/01/30 05:51:24;;;;;;;17.23;10.43;;;2.10;99.90;;;;;;5075314;28;20195;-65
2023/01/30 05:53:50;;;;;;;18.43;11.67;;;2.00;99.90;;;;;;5075779;28;20273;-64
2023/01/30 05:56:16;;;;;;;14.87;10.10;;;2.00;99.90;;;;;;5074393;28;20885;-65
2023/01/30 05:58:42;;;;;;;15.13;9.97;;;2.10;99.90;;;;;;5073067;28;20453;-65
2023/01/30 06:01:11;;;;;;;17.20;9.63;;;2.10;99.90;;;;;;5070289;28;20447;-65
2023/01/30 06:03:37;;;;;;;17.17;9.10;;;2.10;99.90;;;;;;5072981;28;21107;-65
2023/01/30 06:06:04;;;;;;;15.77;10.77;;;2.10;99.90;;;;;;5077901;28;20451;-66
2023/01/30 06:08:31;;;;;;;18.03;10.03;;;2.10;99.90;;;;;;5073658;28;21050;-65
2023/01/30 06:11:05;;;;;;;17.10;9.93;;;2.10;99.90;;;;;;5076999;28;20506;-65
2023/01/30 06:13:30;;;;;;;17.67;10.13;;;2.00;99.90;;;;;;5076019;28;20422;-65
2023/01/30 06:15:56;;;;;;;14.00;9.27;;;2.00;99.90;;;;;;5075923;28;20993;-65
2023/01/30 06:18:22;;;;;;;16.23;10.37;;;2.00;99.90;;;;;;5074839;28;20189;-65
2023/01/30 06:20:49;;;;;;;18.17;11.17;;;1.90;99.90;;;;;;5077901;28;20196;-65
2023/01/30 06:23:15;;;;;;;15.37;10.97;;;1.90;99.90;;;;;;5074785;28;20513;-65
2023/01/30 06:25:47;;;;;;;16.67;10.43;;;1.80;99.90;;;;;;5058789;28;20441;-64
2023/01/30 06:28:14;;;;;;;13.77;9.50;;;1.90;99.90;;;;;;5075993;28;20477;-64
2023/01/30 06:30:40;;;;;;;14.20;9.63;;;1.90;99.90;;;;;;5077614;28;20422;-65
2023/01/30 06:33:06;;;;;;;16.43;10.67;;;1.90;99.90;;;;;;5070036;28;20451;-65
2023/01/30 06:35:32;;;;;;;16.17;10.10;;;1.90;99.90;;;;;;5078689;28;20189;-65
2023/01/30 06:37:57;;;;;;;15.80;9.73;;;1.90;99.90;;;;;;5073851;28;20433;-65
2023/01/30 06:40:23;;;;;;;17.03;11.17;;;2.00;99.90;;;;;;5073591;28;20283;-65
2023/01/30 06:42:49;;;;;;;14.40;9.70;;;1.90;99.90;;;;;;5056113;28;20233;-65
2023/01/30 06:45:17;;;;;;;15.73;10.80;;;2.00;99.90;;;;;;5075101;28;20563;-65
2023/01/30 06:47:51;;;;;;;15.10;9.00;;;2.00;99.90;;;;;;5072000;28;20475;-64
2023/01/30 06:50:19;;;;;;;16.13;10.10;;;2.10;99.90;;;;;;5077637;28;20436;-64
2023/01/30 06:52:46;;;;;;;16.63;8.43;;;2.00;99.90;;;;;;5073689;28;21104;-65
2023/01/30 06:55:15;;;;;;;17.23;10.50;;;2.10;99.90;;;;;;5074670;28;20427;-65
2023/01/30 06:57:41;;;;;;;14.23;9.43;;;2.10;99.90;;;;;;5072485;28;20454;-64
2023/01/30 07:00:10;;;;;;;17.07;10.57;;;2.10;99.90;;;;;;5068518;28;20447;-65
2023/01/30 07:02:36;;;;;;;12.80;7.83;;;2.20;99.90;;;;;;5056321;28;20459;-65
2023/01/30 07:05:03;;;;;;;12.10;7.70;;;2.20;99.90;;;;;;5075283;28;20439;-65
2023/01/30 07:07:30;;;;;;;15.77;9.93;;;2.10;99.90;;;;;;5070041;28;20929;-64
2023/01/30 07:09:56;;;;;;;15.47;10.03;;;2.10;99.90;;;;;;5070698;28;20440;-65
2023/01/30 07:12:23;;;;;;;14.30;9.37;;;2.10;99.90;;;;;;5076534;28;20432;-65
2023/01/30 07:14:49;;;;;;;14.97;9.80;;;2.20;99.90;;;;;;5078249;28;20828;-65
2023/01/30 07:17:15;;;;;;;17.50;9.10;;;2.20;99.90;;;;;;5075432;28;20645;-65
2023/01/30 07:19:41;;;;;;;15.67;9.30;;;2.30;99.90;;;;;;5073676;28;20948;-65
2023/01/30 07:22:07;;;;;;;17.20;9.93;;;2.30;99.90;;;;;;5074223;28;20472;-65
2023/01/30 07:24:32;;;;;;;15.43;9.67;;;2.30;99.90;;;;;;5076483;28;20438;-65
2023/01/30 07:26:58;;;;;;;13.87;8.73;;;2.30;99.90;;;;;;5076851;28;20204;-65
2023/01/30 07:29:23;;;;;;;14.90;9.53;;;2.40;99.90;;;;;;5075746;28;20800;-65
2023/01/30 07:31:50;;;;;;;9.97;6.53;;;2.20;99.90;;;;;;5074116;28;20190;-65
2023/01/30 07:34:16;;;;;;;13.77;10.30;;;2.20;99.90;;;;;;5075223;28;20451;-65
2023/01/30 07:36:42;;;;;;;16.13;8.67;;;2.20;99.90;;;;;;5075805;28;20824;-65
2023/01/30 07:39:08;;;;;;;16.23;9.43;;;2.30;99.90;;;;;;5079035;28;20203;-65
2023/01/30 07:41:34;;;;;;;15.40;9.03;;;2.20;99.90;;;;;;5076170;28;20202;-65
2023/01/30 07:44:00;;;;;;;16.40;9.57;;;2.20;99.90;;;;;;5080626;28;20427;-65
2023/01/30 07:46:25;;;;;;;17.83;11.33;;;2.20;99.90;;;;;;5061423;28;20821;-65
2023/01/30 07:48:51;;;;;;;16.10;9.73;;;2.20;99.90;;;;;;5080683;28;20178;-65
2023/01/30 07:51:17;;;;;;;14.67;10.30;;;2.20;99.90;;;;;;5078457;28;20584;-65
2023/01/30 07:53:42;;;;;;;15.17;9.10;;;2.10;99.90;;;;;;5078041;28;20586;-65
2023/01/30 07:56:09;;;;;;;15.53;9.83;;;2.20;99.90;;;;;;5074134;28;20202;-65
2023/01/30 07:58:35;;;;;;;22.27;10.40;;;2.20;99.90;;;;;;5079291;28;20200;-65
2023/01/30 08:01:01;;;;;;;15.07;8.77;;;2.10;99.90;;;;;;5059777;28;21023;-66
2023/01/30 08:03:26;;;;;;;13.97;9.77;;;2.20;99.90;;;;;;5073744;28;20721;-65
2023/01/30 08:05:52;;;;;;;15.00;10.30;;;2.30;99.90;;;;;;5073983;28;20354;-65
2023/01/30 08:08:18;;;;;;;12.10;8.67;;;2.30;99.90;;;;;;5075748;28;20190;-65
2023/01/30 08:10:47;;;;;;;9.13;5.63;;;2.30;99.90;;;;;;5071229;28;20976;-65
2023/01/30 08:13:13;;;;;;;15.83;9.80;;;2.30;99.90;;;;;;5076568;28;20543;-65
2023/01/30 08:15:38;;;;;;;17.03;8.63;;;2.30;99.90;;;;;;5074785;28;20522;-66
2023/01/30 08:18:06;;;;;;;14.93;9.43;;;2.30;99.90;;;;;;5076548;28;20190;-65
2023/01/30 08:20:32;;;;;;;18.60;9.70;;;2.20;99.90;;;;;;5074861;28;20217;-65
2023/01/30 08:22:58;;;;;;;18.83;10.80;;;2.30;99.90;;;;;;5077015;28;20479;-65
2023/01/30 08:25:24;;;;;;;12.53;7.70;;;2.30;99.90;;;;;;5074673;28;20546;-65
2023/01/30 08:27:50;;;;;;;18.80;10.80;;;2.30;99.90;;;;;;5079874;28;20535;-65
2023/01/30 08:30:17;;;;;;;16.80;10.90;;;2.30;99.90;;;;;;5074125;28;20430;-65
2023/01/30 08:32:43;;;;;;;12.73;8.67;;;2.30;99.90;;;;;;5075995;28;20456;-65
2023/01/30 08:35:09;;;;;;;19.27;10.03;;;2.30;99.90;;;;;;5074612;28;20470;-65
2023/01/30 08:37:35;;;;;;;20.63;10.20;;;2.30;99.90;;;;;;5076401;28;20202;-65
2023/01/30 08:40:00;;;;;;;14.90;10.20;;;2.30;99.90;;;;;;5075903;28;20448;-65
2023/01/30 08:42:26;;;;;;;16.23;9.00;;;2.50;99.90;;;;;;5076973;28;20208;-65
2023/01/30 08:44:51;;;;;;;14.03;10.17;;;2.40;99.90;;;;;;5076448;28;20197;-65
2023/01/30 08:47:17;;;;;;;16.47;9.67;;;2.40;99.90;;;;;;5074500;28;20203;-65
2023/01/30 08:49:43;;;;;;;18.47;10.50;;;2.40;99.90;;;;;;5078602;28;20182;-65
2023/01/30 08:52:09;;;;;;;16.23;10.70;;;2.30;99.90;;;;;;5062171;28;20194;-65
2023/01/30 08:54:34;;;;;;;16.03;9.47;;;2.30;99.90;;;;;;5075857;28;20216;-65
2023/01/30 08:57:00;;;;;;;22.63;10.30;;;2.40;99.90;;;;;;5076647;28;20464;-65
2023/01/30 08:59:26;;;;;;;17.13;10.20;;;2.40;99.90;;;;;;5076011;28;20217;-66
2023/01/30 09:01:51;;;;;;;19.27;9.77;;;2.30;99.90;;;;;;5077965;28;20210;-65
2023/01/30 09:04:17;;;;;;;16.03;9.87;;;2.30;99.90;;;;;;5073267;28;20186;-65
2023/01/30 09:06:42;;;;;;;12.00;7.10;;;2.30;99.90;;;;;;5080164;28;20791;-65
2023/01/30 09:09:08;;;;;;;17.23;9.60;;;2.30;99.90;;;;;;5056448;28;20178;-65
2023/01/30 09:11:33;;;;;;;16.23;9.77;;;2.30;99.90;;;;;;5076616;28;20228;-64
2023/01/30 09:13:59;;;;;;;20.37;9.53;;;2.30;99.90;;;;;;5060466;28;20180;-64
2023/01/30 09:16:25;;;;;;;13.70;9.40;;;2.30;99.90;;;;;;5077013;28;20209;-64
2023/01/30 09:18:50;;;;;;;15.13;10.03;;;2.30;99.90;;;;;;5055789;28;20197;-64
2023/01/30 09:21:16;;;;;;;15.40;9.70;;;2.30;99.90;;;;;;5061136;28;20218;-64
2023/01/30 09:23:41;;;;;;;13.60;8.97;;;2.40;99.90;;;;;;5077006;28;20178;-64
2023/01/30 09:26:07;;;;;;;13.80;9.23;;;2.50;99.90;;;;;;5075316;28;20553;-64
2023/01/30 09:28:34;;;;;;;16.83;9.07;;;2.50;99.90;;;;;;5077258;28;20223;-64
2023/01/30 09:31:00;;;;;;;14.93;9.13;;;2.50;99.90;;;;;;5073150;28;20179;-65
2023/01/30 09:33:26;;;;;;;17.27;10.47;;;2.50;99.90;;;;;;5069294;28;20445;-65
2023/01/30 09:35:52;;;;;;;17.30;9.57;;;2.40;99.90;;;;;;5076490;28;20468;-66
2023/01/30 09:38:18;;;;;;;12.70;7.50;;;2.50;99.90;;;;;;5072941;28;20435;-65
2023/01/30 09:41:30;;;;;;;24.47;10.70;;;2.50;99.90;;;;;;5078442;28;20556;-65
2023/01/30 09:44:29;;;;;;;14.27;8.47;;;2.40;99.90;;;;;;5048869;28;20480;-65
2023/01/30 09:47:02;;;;;;;14.83;7.80;;;2.50;99.90;;;;;;5078647;28;20440;-65
2023/01/30 09:49:51;;;;;;;17.40;11.67;;;2.50;99.90;;;;;;5074727;28;20430;-65
2023/01/30 09:52:32;;;;;;;20.43;11.27;;;2.50;99.90;;;;;;5078894;28;20552;-65
2023/01/30 09:55:23;;;;;;;16.40;9.57;;;2.50;99.90;;;;;;5075749;28;20558;-65
2023/01/30 09:57:50;;;;;;;14.87;9.20;;;2.60;99.90;;;;;;5066877;28;20460;-65
2023/01/30 10:00:23;;;;;;;15.57;9.77;;;2.60;99.90;;;;;;5072986;28;21128;-66
2023/01/30 10:03:04;;;;;;;13.50;7.80;;;2.60;99.90;;;;;;5077337;28;20463;-65
2023/01/30 10:05:46;;;;;;;16.10;10.53;;;2.60;99.90;;;;;;5075573;28;20930;-66
2023/01/30 10:08:48;;;;;;;14.60;9.60;;;2.60;99.90;;;;;;5072975;28;20439;-65
2023/01/30 10:11:46;;;;;;;12.97;9.00;;;2.60;99.90;;;;;;5073861;28;20427;-65
2023/01/30 10:14:15;;;;;;;16.57;11.37;;;2.70;99.90;;;;;;5075582;28;20887;-65
2023/01/30 10:16:47;;;;;;;18.27;9.10;;;2.70;99.90;;;;;;5057882;28;20935;-65
2023/01/30 10:19:28;;;;;;;19.47;10.80;;;2.60;99.90;;;;;;5072905;28;20426;-65
2023/01/30 10:22:01;;;;;;;14.80;9.73;;;2.70;99.90;;;;;;5072719;28;20463;-65
2023/01/30 10:24:39;;;;;;;15.93;11.10;;;2.80;99.90;;;;;;5073811;28;21109;-66
2023/01/30 10:27:15;;;;;;;13.63;9.00;;;2.80;99.90;;;;;;5074148;28;20437;-65
2023/01/30 10:29:55;;;;;;;19.63;11.17;;;2.80;99.90;;;;;;5075973;28;20416;-65
2023/01/30 10:32:27;;;;;;;15.23;9.67;;;2.80;99.90;;;;;;5054360;28;20474;-65
2023/01/30 10:34:56;;;;;;;17.53;10.00;;;2.90;99.90;;;;;;5067089;28;20416;-65
2023/01/30 10:38:20;;;;;;;13.23;7.83;;;2.90;99.90;;;;;;5076113;28;20446;-66
2023/01/30 10:40:54;;;;;;;19.20;9.47;;;3.00;99.90;;;;;;5010722;28;20545;-66
2023/01/30 10:43:41;;;;;;;16.93;8.80;;;3.00;99.90;;;;;;5006921;28;21036;-65
2023/01/30 10:46:29;;;;;;;18.00;9.33;;;3.00;99.90;;;;;;5063151;28;20452;-66
2023/01/30 10:49:04;;;;;;;19.73;10.93;;;2.80;99.90;;;;;;5076618;28;20516;-65
2023/01/30 10:51:47;;;;;;;18.47;10.77;;;2.90;99.90;;;;;;5071470;28;20404;-65
2023/01/30 10:54:16;;;;;;;23.90;10.67;;;2.90;99.90;;;;;;5058955;28;20460;-65
2023/01/30 10:57:17;;;;;;;16.40;10.13;;;2.90;99.90;;;;;;5061749;28;20440;-65
2023/01/30 10:59:48;;;;;;;17.37;9.50;;;2.90;99.90;;;;;;5071671;28;20458;-65
2023/01/30 11:02:31;;;;;;;17.30;8.00;;;2.90;99.90;;;;;;5076634;28;20633;-66
2023/01/30 11:05:02;;;;;;;20.57;10.87;;;3.00;99.90;;;;;;5079090;28;20412;-65
2023/01/30 11:07:32;;;;;;;16.77;10.30;;;3.00;99.90;;;;;;5041808;28;1063251;-65
2023/01/30 11:09:59;;;;;;;16.60;10.27;;;3.00;99.90;;;;;;5076066;28;20309;-65
2023/01/30 11:12:25;;;;;;;19.63;10.30;;;3.00;99.90;;;;;;5077179;28;20848;-65
2023/01/30 11:15:00;;;;;;;16.90;10.70;;;3.00;99.90;;;;;;5081632;28;20466;-65
2023/01/30 11:17:41;;;;;;;19.13;10.43;;;3.00;99.90;;;;;;5075943;28;20204;-65
2023/01/30 11:20:15;;;;;;;13.57;8.17;;;3.00;99.90;;;;;;5079970;28;20539;-65
2023/01/30 11:23:03;;;;;;;18.77;10.70;;;3.00;99.90;;;;;;5078628;28;20463;-66
2023/01/30 11:25:28;;;;;;;20.33;10.50;;;3.10;99.90;;;;;;5077743;28;20434;-65
2023/01/30 11:27:59;;;;;;;14.80;9.53;;;3.10;99.90;;;;;;5080464;28;20834;-65
2023/01/30 11:30:33;;;;;;;19.30;10.67;;;3.10;99.90;;;;;;5080783;28;20186;-65
2023/01/30 11:33:11;;;;;;;20.53;9.47;;;3.10;99.90;;;;;;5078538;28;20489;-65
2023/01/30 11:35:55;;;;;;;14.37;9.63;;;3.10;99.90;;;;;;5061578;28;20442;-65
2023/01/30 11:38:27;;;;;;;17.57;10.00;;;3.10;99.90;;;;;;5075896;28;20446;-65
2023/01/30 11:41:11;;;;;;;21.27;11.80;;;3.00;99.90;;;;;;5079743;28;20631;-65
2023/01/30 11:43:38;;;;;;;18.40;10.33;;;3.00;99.90;;;;;;5077527;28;20476;-65
2023/01/30 11:46:11;;;;;;;20.80;12.53;;;3.00;99.90;;;;;;5076879;28;20539;-65
2023/01/30 11:48:52;;;;;;;18.07;10.93;;;3.00;99.90;;;;;;5077083;28;20463;-65
2023/01/30 11:51:22;;;;;;;18.50;10.03;;;3.00;99.90;;;;;;5079083;28;20431;-65
2023/01/30 11:53:58;;;;;;;19.67;11.87;;;3.10;99.90;;;;;;5078593;28;20447;-65
2023/01/30 11:56:46;;;;;;;18.40;11.30;;;3.10;99.90;;;;;;5079297;28;20462;-65
2023/01/30 11:59:30;;;;;;;18.23;11.33;;;3.10;99.90;;;;;;5079021;28;20504;-65
2023/01/30 12:02:14;;;;;;;23.73;11.83;;;3.00;99.90;;;;;;5072268;28;20471;-65
2023/01/30 12:04:46;;;;;;;17.93;11.33;;;2.90;99.90;;;;;;5077075;28;20442;-65
2023/01/30 12:07:23;;;;;;;14.90;10.97;;;3.00;99.90;;;;;;5077126;28;20834;-65
2023/01/30 12:09:50;;;;;;;14.87;9.57;;;3.00;99.90;;;;;;5074107;28;20440;-65
2023/01/30 12:12:39;;;;;;;18.93;11.90;;;3.00;99.90;;;;;;5074295;28;20417;-65
2023/01/30 12:15:24;;;;;;;18.37;12.53;;;3.00;99.90;;;;;;5078117;28;20793;-65
2023/01/30 12:18:15;;;;;;;19.73;12.70;;;3.00;99.90;;;;;;5073598;28;20830;-65
2023/01/30 12:20:55;;;;;;;19.93;12.97;;;3.00;99.90;;;;;;5073530;28;20420;-65
2023/01/30 12:23:59;;;;;;;26.30;13.73;;;2.90;99.90;;;;;;5060692;28;20460;-66
2023/01/30 12:26:33;;;;;;;20.80;12.27;;;2.80;99.90;;;;;;5077576;28;20899;-65
2023/01/30 12:29:29;;;;;;;23.23;13.67;;;2.80;99.90;;;;;;5074525;28;20428;-66
2023/01/30 12:32:13;;;;;;;18.37;10.87;;;2.90;99.90;;;;;;5074129;28;20487;-65
2023/01/30 12:34:39;;;;;;;21.23;10.07;;;2.90;99.90;;;;;;5077815;28;20435;-65
2023/01/30 12:37:39;;;;;;;23.33;13.23;;;2.90;99.90;;;;;;5076995;28;20478;-65
2023/01/30 12:40:16;;;;;;;21.30;13.87;;;2.80;99.90;;;;;;5080576;28;20527;-65
2023/01/30 12:43:10;;;;;;;19.60;12.43;;;2.90;99.90;;;;;;5076650;28;20456;-65
2023/01/30 12:46:07;;;;;;;19.13;11.97;;;2.90;99.90;;;;;;5076107;28;20413;-65
2023/01/30 12:49:01;;;;;;;20.33;12.50;;;2.90;99.90;;;;;;5073670;28;20459;-65
2023/01/30 12:52:07;;;;;;;16.60;9.37;;;2.90;99.90;;;;;;5076536;28;20425;-65
2023/01/30 12:55:07;;;;;;;18.50;11.80;;;2.90;99.90;;;;;;5075800;28;20434;-65
2023/01/30 12:57:44;;;;;;;19.07;11.27;;;2.90;99.90;;;;;;5075809;28;20475;-65
2023/01/30 13:00:53;;;;;;;18.50;10.40;;;2.90;99.90;;;;;;5078109;28;20433;-65
2023/01/30 13:03:45;;;;;;;17.37;9.77;;;3.00;99.90;;;;;;5073968;28;21076;-65
2023/01/30 13:06:37;;;;;;;21.83;13.40;;;3.00;99.90;;;;;;5063680;28;20559;-65
2023/01/30 13:09:21;;;;;;;20.63;11.97;;;3.00;99.90;;;;;;5073009;28;20474;-65
2023/01/30 13:11:53;;;;;;;15.33;11.13;;;3.10;99.90;;;;;;5076752;28;20437;-65